createdAt,value
2022-11-09T00:04:41.240Z,2.38
2022-11-09T00:09:45.738Z,2.40
2022-11-09T00:14:48.722Z,3.33
2022-11-09T00:19:51.670Z,3.92
2022-11-09T00:24:55.963Z,2.95
2022-11-09T00:29:58.913Z,2.80
2022-11-09T00:35:01.854Z,2.75
2022-11-09T00:40:07.346Z,2.92
2022-11-09T00:45:10.962Z,2.80
2022-11-09T00:50:13.978Z,2.83
2022-11-09T00:55:21.009Z,2.85
2022-11-09T01:00:25.230Z,2.58
2022-11-09T01:05:28.234Z,2.28
2022-11-09T01:10:32.769Z,2.17
2022-11-09T01:15:35.693Z,3.00
2022-11-09T01:20:42.410Z,2.10
2022-11-09T01:25:46.734Z,1.92
2022-11-09T01:30:49.793Z,2.80
2022-11-09T01:35:52.726Z,3.60
2022-11-09T01:40:57.153Z,2.63
2022-11-09T01:46:04.603Z,2.33
2022-11-09T01:51:11.366Z,2.15
2022-11-09T01:56:16.197Z,2.05
2022-11-09T02:01:19.704Z,2.53
2022-11-09T02:06:25.091Z,2.22
2022-11-09T02:11:30.289Z,2.70
2022-11-09T02:16:33.582Z,4.28
2022-11-09T02:21:38.029Z,2.47
2022-11-09T02:26:45.405Z,2.65
2022-11-09T02:31:53.450Z,3.33
2022-11-09T02:36:57.825Z,2.38
2022-11-09T02:42:05.126Z,2.50
2022-11-09T02:47:10.968Z,1.95
2022-11-09T02:52:15.609Z,1.75
2022-11-09T02:57:18.772Z,2.45
2022-11-09T03:02:21.810Z,2.28
2022-11-09T03:07:26.717Z,1.77
2022-11-09T03:12:32.399Z,2.13
2022-11-09T03:17:36.023Z,2.17
2022-11-09T03:22:40.440Z,2.55
2022-11-09T03:27:43.642Z,2.13
2022-11-09T03:32:50.427Z,2.75
2022-11-09T03:37:55.502Z,2.83
2022-11-09T03:42:59.106Z,3.05
2022-11-09T03:48:02.096Z,2.10
2022-11-09T03:53:06.434Z,2.78
2022-11-09T03:58:12.283Z,2.38
2022-11-09T04:03:15.241Z,3.17
2022-11-09T04:08:19.576Z,3.22
2022-11-09T04:13:22.864Z,1.77
2022-11-09T04:18:25.832Z,2.00
2022-11-09T04:23:30.207Z,1.70
2022-11-09T04:28:33.163Z,2.63
2022-11-09T04:33:36.129Z,2.03
2022-11-09T04:38:40.496Z,3.47
2022-11-09T04:43:43.653Z,1.95
2022-11-09T04:48:47.122Z,2.47
2022-11-09T04:53:51.418Z,1.98
2022-11-09T04:58:54.407Z,3.17
2022-11-09T05:03:57.449Z,2.58
2022-11-09T05:09:03.247Z,2.00
2022-11-09T05:14:06.207Z,1.65
2022-11-09T05:19:09.274Z,1.70
2022-11-09T05:24:13.730Z,3.75
2022-11-09T05:29:17.766Z,1.83
2022-11-09T05:34:20.707Z,2.63
2022-11-09T05:39:25.022Z,3.65
2022-11-09T05:44:27.960Z,2.15
2022-11-09T05:49:30.909Z,2.42
2022-11-09T05:54:35.222Z,1.92
2022-11-09T05:59:38.216Z,3.00
2022-11-09T06:04:41.152Z,2.22
2022-11-09T06:09:45.448Z,1.67
2022-11-09T06:14:48.395Z,2.63
2022-11-09T06:19:51.361Z,1.88
2022-11-09T06:24:55.681Z,1.90
2022-11-09T06:29:58.618Z,2.10
2022-11-09T06:35:01.608Z,1.45
2022-11-09T06:40:06.907Z,2.10
2022-11-09T06:45:11.055Z,1.80
2022-11-09T06:50:14.031Z,1.80
2022-11-09T06:55:18.517Z,1.65
2022-11-09T07:00:22.227Z,4.35
2022-11-09T07:05:25.225Z,3.08
2022-11-09T07:10:29.590Z,3.47
2022-11-09T07:15:32.825Z,3.13
2022-11-09T07:20:36.148Z,4.70
2022-11-09T07:25:40.515Z,5.78
2022-11-09T07:30:43.569Z,5.15
2022-11-09T07:35:47.142Z,4.40
2022-11-09T07:40:51.460Z,6.70
2022-11-09T07:45:54.480Z,3.35
2022-11-09T07:50:57.766Z,3.80
2022-11-09T07:56:04.095Z,3.53
2022-11-09T08:01:09.379Z,5.50
2022-11-09T08:06:18.113Z,4.55
2022-11-09T08:11:22.836Z,3.47
2022-11-09T08:16:25.847Z,4.28
2022-11-09T08:21:28.852Z,4.68
2022-11-09T08:26:33.493Z,8.10
2022-11-09T08:31:36.441Z,6.65
2022-11-09T08:36:39.458Z,8.57
2022-11-09T08:41:43.827Z,5.28
2022-11-09T08:46:46.811Z,6.47
2022-11-09T08:51:49.771Z,6.03
2022-11-09T08:56:56.230Z,7.57
2022-11-09T09:01:59.643Z,8.95
2022-11-09T09:07:02.652Z,7.40
2022-11-09T09:12:08.410Z,6.38
2022-11-09T09:17:11.800Z,11.02
2022-11-09T09:22:14.783Z,7.38
2022-11-09T09:27:19.102Z,6.05
2022-11-09T09:32:22.143Z,8.98
2022-11-09T09:37:25.149Z,8.65
2022-11-09T09:42:35.432Z,4.00
2022-11-09T09:47:49.689Z,6.82
2022-11-09T09:53:18.091Z,4.40
2022-11-09T09:58:26.605Z,7.15
2022-11-09T10:03:29.733Z,5.22
2022-11-09T10:08:44.195Z,5.55
2022-11-09T10:14:02.511Z,6.47
2022-11-09T10:19:25.890Z,6.60
2022-11-09T10:24:48.576Z,5.97
2022-11-09T10:30:00.216Z,6.18
2022-11-09T10:35:07.900Z,5.03
2022-11-09T10:40:18.861Z,5.15
2022-11-09T10:45:30.264Z,4.68
2022-11-09T10:50:35.451Z,5.82
2022-11-09T10:55:38.633Z,4.55
2022-11-09T11:00:57.936Z,5.72
2022-11-09T11:06:02.376Z,3.20
2022-11-09T11:11:38.054Z,4.57
2022-11-09T11:16:44.005Z,3.78
2022-11-09T11:21:47.002Z,4.80
2022-11-09T11:26:58.224Z,4.95
2022-11-09T11:32:02.723Z,4.35
2022-11-09T11:37:20.803Z,3.63
2022-11-09T11:42:45.111Z,3.15
2022-11-09T11:47:58.803Z,4.15
2022-11-09T11:53:14.361Z,3.35
2022-11-09T11:58:29.466Z,2.70
2022-11-09T12:03:50.558Z,5.18
2022-11-09T12:09:09.019Z,2.90
2022-11-09T12:14:21.591Z,3.53
2022-11-09T12:19:49.861Z,3.92
2022-11-09T12:25:01.076Z,3.35
2022-11-09T12:30:10.612Z,4.57
2022-11-09T12:35:23.246Z,3.75
2022-11-09T12:40:29.149Z,3.35
2022-11-09T12:45:34.698Z,3.30
2022-11-09T12:50:39.561Z,2.90
2022-11-09T12:55:48.499Z,5.82
2022-11-09T13:00:54.866Z,4.43
2022-11-09T13:06:22.978Z,4.00
2022-11-09T13:11:38.746Z,1.98
2022-11-09T13:16:41.835Z,3.45
2022-11-09T13:21:46.403Z,4.97
2022-11-09T13:27:00.388Z,4.82
2022-11-09T13:32:23.494Z,4.25
2022-11-09T13:37:48.023Z,5.80
2022-11-09T13:42:58.452Z,3.35
2022-11-09T13:48:01.911Z,2.53
2022-11-09T13:53:30.523Z,4.47
2022-11-09T13:58:37.249Z,5.40
2022-11-09T14:03:40.271Z,3.25
2022-11-09T14:08:44.961Z,3.13
2022-11-09T14:14:22.727Z,3.70
2022-11-09T14:19:32.465Z,2.20
2022-11-09T14:24:39.137Z,3.70
2022-11-09T14:29:56.137Z,2.35
2022-11-09T14:35:28.203Z,3.28
2022-11-09T14:40:33.689Z,2.78
2022-11-09T14:45:36.669Z,4.70
2022-11-09T14:50:39.836Z,2.85
2022-11-09T14:55:44.827Z,2.28
2022-11-09T15:01:08.453Z,1.50
2022-11-09T15:06:14.196Z,1.90
2022-11-09T15:11:18.633Z,1.92
2022-11-09T15:16:23.621Z,3.15
2022-11-09T15:21:36.066Z,3.40
2022-11-09T15:26:43.317Z,1.80
2022-11-09T15:31:58.846Z,3.40
2022-11-09T15:37:01.937Z,118.53
2022-11-09T15:42:06.699Z,50.83
2022-11-09T15:47:22.598Z,264.95
2022-11-09T15:52:25.607Z,456.83
2022-11-09T15:57:32.707Z,229.73
2022-11-09T16:02:35.701Z,277.13
2022-11-09T16:07:38.715Z,234.30
2022-11-09T16:12:46.327Z,32.95
2022-11-09T16:17:50.439Z,65.57
2022-11-09T16:22:53.457Z,52.90
2022-11-09T16:27:59.911Z,51.33
2022-11-09T16:33:02.894Z,48.75
2022-11-09T16:38:05.933Z,65.70
2022-11-09T16:43:10.406Z,56.72
2022-11-09T16:48:14.978Z,47.78
2022-11-09T16:53:20.608Z,43.40
2022-11-09T16:58:27.082Z,40.55
2022-11-09T17:03:30.079Z,41.35
2022-11-09T17:08:33.031Z,37.15
2022-11-09T17:13:37.487Z,33.92
2022-11-09T17:18:40.579Z,32.55
2022-11-09T17:23:44.269Z,32.50
2022-11-09T17:28:49.041Z,29.92
2022-11-09T17:33:54.751Z,27.98
2022-11-09T17:39:00.153Z,25.85
2022-11-09T17:44:04.602Z,24.92
2022-11-09T17:49:10.243Z,26.70
2022-11-09T17:54:14.654Z,20.95
2022-11-09T17:59:18.972Z,21.15
2022-11-09T18:04:21.910Z,21.25
2022-11-09T18:09:40.872Z,19.23
2022-11-09T18:14:46.018Z,17.55
2022-11-09T18:19:48.970Z,19.30
2022-11-09T18:24:51.950Z,17.10
2022-11-09T18:29:56.650Z,17.52
2022-11-09T18:34:59.719Z,15.60
2022-11-09T18:40:02.953Z,15.40
2022-11-09T18:45:09.201Z,15.43
2022-11-09T18:50:12.212Z,14.85
2022-11-09T18:55:15.335Z,15.85
2022-11-09T19:00:20.608Z,15.07
2022-11-09T19:05:23.688Z,14.82
2022-11-09T19:10:26.751Z,17.55
2022-11-09T19:15:32.093Z,16.63
2022-11-09T19:20:35.085Z,14.05
2022-11-09T19:25:38.080Z,16.25
2022-11-09T19:30:42.442Z,22.02
2022-11-09T19:36:01.784Z,14.15
2022-11-09T19:41:08.477Z,23.80
2022-11-09T19:46:12.840Z,12.20
2022-11-09T19:51:16.844Z,13.07
2022-11-09T19:56:20.829Z,11.30
2022-11-09T20:01:25.890Z,15.60
2022-11-09T20:06:29.973Z,13.55
2022-11-09T20:11:52.653Z,13.50
2022-11-09T20:17:02.137Z,10.48
2022-11-09T20:22:06.321Z,15.00
2022-11-09T20:27:09.631Z,13.48
2022-11-09T20:32:14.838Z,11.07
2022-11-09T20:37:20.881Z,10.43
2022-11-09T20:42:23.863Z,10.70
2022-11-09T20:47:49.555Z,10.23
2022-11-09T20:52:51.662Z,11.13
2022-11-09T20:57:54.649Z,10.15
2022-11-09T21:02:59.354Z,9.52
2022-11-09T21:08:02.422Z,9.93
2022-11-09T21:13:05.411Z,9.82
2022-11-09T21:18:10.096Z,8.80
2022-11-09T21:23:31.017Z,9.57
2022-11-09T21:28:51.673Z,9.60
2022-11-09T21:33:56.418Z,8.93
2022-11-09T21:38:59.435Z,9.38
2022-11-09T21:44:02.666Z,9.10
2022-11-09T21:49:07.849Z,15.55
2022-11-09T21:54:11.440Z,7.60
2022-11-09T21:59:14.517Z,7.97
2022-11-09T22:04:19.210Z,8.40
2022-11-09T22:09:22.186Z,8.63
2022-11-09T22:14:42.998Z,9.90
2022-11-09T22:20:04.746Z,7.95
2022-11-09T22:25:09.061Z,7.07
2022-11-09T22:30:12.717Z,7.95
2022-11-09T22:35:17.267Z,7.10
2022-11-09T22:40:20.422Z,7.30
2022-11-09T22:45:23.396Z,6.10
2022-11-09T22:50:27.722Z,6.70
2022-11-09T22:55:30.718Z,6.57
2022-11-09T23:00:33.677Z,6.38
2022-11-09T23:05:38.024Z,6.15
2022-11-09T23:10:41.145Z,5.43
2022-11-09T23:15:44.121Z,6.10
2022-11-09T23:20:49.387Z,5.28
2022-11-09T23:25:56.396Z,7.55
2022-11-09T23:31:01.072Z,5.75
2022-11-09T23:36:07.428Z,4.90
2022-11-09T23:41:12.940Z,4.93
2022-11-09T23:46:16.182Z,4.30
2022-11-09T23:51:20.519Z,4.53
2022-11-09T23:56:23.525Z,4.28
